createdAt,value
2023-05-19T00:00:25.870Z,9.45
2023-05-19T00:01:25.863Z,9.40
2023-05-19T00:02:26.048Z,9.50
2023-05-19T00:03:25.926Z,9.49
2023-05-19T00:04:25.836Z,9.48
2023-05-19T00:05:25.839Z,9.55
2023-05-19T00:06:25.822Z,9.58
2023-05-19T00:07:25.794Z,9.55
2023-05-19T00:08:25.810Z,9.53
2023-05-19T00:09:25.781Z,9.41
2023-05-19T00:10:25.769Z,9.41
2023-05-19T00:11:25.765Z,9.41
2023-05-19T00:12:25.759Z,9.38
2023-05-19T00:13:25.748Z,9.38
2023-05-19T00:14:25.728Z,9.49
2023-05-19T00:15:25.713Z,9.48
2023-05-19T00:16:25.765Z,9.40
2023-05-19T00:17:25.739Z,9.35
2023-05-19T00:18:25.696Z,9.31
2023-05-19T00:19:26.303Z,9.19
2023-05-19T00:20:25.657Z,9.24
2023-05-19T00:21:25.654Z,9.23
2023-05-19T00:22:25.649Z,9.24
2023-05-19T00:23:25.654Z,9.32
2023-05-19T00:24:25.623Z,9.23
2023-05-19T00:25:25.607Z,9.23
2023-05-19T00:26:25.597Z,9.13
2023-05-19T00:27:25.607Z,9.23
2023-05-19T00:28:25.594Z,9.26
2023-05-19T00:29:25.578Z,9.24
2023-05-19T00:30:25.559Z,9.24
2023-05-19T00:31:25.604Z,9.31
2023-05-19T00:32:25.573Z,9.22
2023-05-19T00:33:25.534Z,9.13
2023-05-19T00:34:25.525Z,9.06
2023-05-19T00:35:25.503Z,9.12
2023-05-19T00:36:25.511Z,9.03
2023-05-19T00:37:25.511Z,9.08
2023-05-19T00:38:25.487Z,9.12
2023-05-19T00:39:25.473Z,9.12
2023-05-19T00:40:25.456Z,8.97
2023-05-19T00:41:25.467Z,9.03
2023-05-19T00:42:25.503Z,9.12
2023-05-19T00:43:25.431Z,9.10
2023-05-19T00:44:25.424Z,9.04
2023-05-19T00:45:25.417Z,9.12
2023-05-19T00:46:25.457Z,8.94
2023-05-19T00:47:25.416Z,8.91
2023-05-19T00:48:25.385Z,8.93
2023-05-19T00:49:25.377Z,8.96
2023-05-19T00:50:25.374Z,8.93
2023-05-19T00:51:25.382Z,8.98
2023-05-19T00:52:25.343Z,8.98
2023-05-19T00:53:25.338Z,9.03
2023-05-19T00:54:25.333Z,9.01
2023-05-19T00:55:25.330Z,9.06
2023-05-19T00:56:25.319Z,8.97
2023-05-19T00:57:25.298Z,9.00
2023-05-19T00:58:25.290Z,9.08
2023-05-19T00:59:25.279Z,8.96
2023-05-19T01:00:25.280Z,8.97
2023-05-19T01:01:25.289Z,8.98
2023-05-19T01:02:25.398Z,9.00
2023-05-19T01:03:25.314Z,8.86
2023-05-19T01:04:25.237Z,8.89
2023-05-19T01:05:25.243Z,8.93
2023-05-19T01:06:25.209Z,8.94
2023-05-19T01:07:25.213Z,8.94
2023-05-19T01:08:25.194Z,8.88
2023-05-19T01:09:25.201Z,8.97
2023-05-19T01:10:25.189Z,8.91
2023-05-19T01:11:25.168Z,9.06
2023-05-19T01:12:25.185Z,9.04
2023-05-19T01:13:25.152Z,9.01
2023-05-19T01:14:25.220Z,9.00
2023-05-19T01:15:25.134Z,9.01
2023-05-19T01:16:25.166Z,8.98
2023-05-19T01:17:25.149Z,8.88
2023-05-19T01:18:25.107Z,8.89
2023-05-19T01:19:25.163Z,8.85
2023-05-19T01:20:25.098Z,8.93
2023-05-19T01:21:25.082Z,8.82
2023-05-19T01:22:25.079Z,8.91
2023-05-19T01:23:25.072Z,8.89
2023-05-19T01:24:25.071Z,8.78
2023-05-19T01:25:25.070Z,8.75
2023-05-19T01:26:25.030Z,8.78
2023-05-19T01:27:25.026Z,8.78
2023-05-19T01:28:25.021Z,8.86
2023-05-19T01:29:25.004Z,8.61
2023-05-19T01:30:24.984Z,8.63
2023-05-19T01:31:25.059Z,8.67
2023-05-19T01:32:25.003Z,8.64
2023-05-19T01:33:24.976Z,8.64
2023-05-19T01:34:24.959Z,8.67
2023-05-19T01:35:24.945Z,8.58
2023-05-19T01:36:24.932Z,8.64
2023-05-19T01:37:24.925Z,8.65
2023-05-19T01:38:24.925Z,8.61
2023-05-19T01:39:24.919Z,8.60
2023-05-19T01:40:24.903Z,8.61
2023-05-19T01:41:24.894Z,8.52
2023-05-19T01:42:24.893Z,8.52
2023-05-19T01:43:24.883Z,8.60
2023-05-19T01:44:24.873Z,8.64
2023-05-19T01:45:24.857Z,8.52
2023-05-19T01:46:25.015Z,8.55
2023-05-19T01:47:24.853Z,8.50
2023-05-19T01:48:24.829Z,8.49
2023-05-19T01:49:24.817Z,8.52
2023-05-19T01:50:24.810Z,8.47
2023-05-19T01:51:24.798Z,8.43
2023-05-19T01:52:24.798Z,8.40
2023-05-19T01:53:24.780Z,8.46
2023-05-19T01:54:24.779Z,8.49
2023-05-19T01:55:24.762Z,8.40
2023-05-19T01:56:24.748Z,8.50
2023-05-19T01:57:24.749Z,8.47
2023-05-19T01:58:24.725Z,8.50
2023-05-19T01:59:24.728Z,8.46
2023-05-19T02:00:24.706Z,8.40
2023-05-19T02:01:24.756Z,8.46
2023-05-19T02:02:24.741Z,8.47
2023-05-19T02:03:24.704Z,8.46
2023-05-19T02:04:24.739Z,8.45
2023-05-19T02:05:24.672Z,8.47
2023-05-19T02:06:24.672Z,8.54
2023-05-19T02:07:24.651Z,8.49
2023-05-19T02:08:24.649Z,8.57
2023-05-19T02:09:24.619Z,8.55
2023-05-19T02:10:24.610Z,8.57
2023-05-19T02:11:24.620Z,8.57
2023-05-19T02:12:24.603Z,8.60
2023-05-19T02:13:24.592Z,8.57
2023-05-19T02:14:24.585Z,8.55
2023-05-19T02:15:24.606Z,8.55
2023-05-19T02:16:24.664Z,8.50
2023-05-19T02:17:24.567Z,8.50
2023-05-19T02:18:24.538Z,8.52
2023-05-19T02:19:24.665Z,8.49
2023-05-19T02:20:24.547Z,8.52
2023-05-19T02:21:24.501Z,8.49
2023-05-19T02:22:24.491Z,8.58
2023-05-19T02:23:24.486Z,8.36
2023-05-19T02:24:24.474Z,8.42
2023-05-19T02:25:24.483Z,8.36
2023-05-19T02:26:24.470Z,8.47
2023-05-19T02:27:24.455Z,8.50
2023-05-19T02:28:24.435Z,8.52
2023-05-19T02:29:24.439Z,8.61
2023-05-19T02:30:24.435Z,8.55
2023-05-19T02:31:24.434Z,8.54
2023-05-19T02:32:24.408Z,8.49
2023-05-19T02:33:24.386Z,8.50
2023-05-19T02:34:24.396Z,8.50
2023-05-19T02:35:24.367Z,8.50
2023-05-19T02:36:24.370Z,8.45
2023-05-19T02:37:24.346Z,8.46
2023-05-19T02:38:24.333Z,8.46
2023-05-19T02:39:24.368Z,8.46
2023-05-19T02:40:24.314Z,8.43
2023-05-19T02:41:24.306Z,8.34
2023-05-19T02:42:24.297Z,8.42
2023-05-19T02:43:24.306Z,8.36
2023-05-19T02:44:24.292Z,8.42
2023-05-19T02:45:24.315Z,8.36
2023-05-19T02:46:24.283Z,8.37
2023-05-19T02:47:24.312Z,8.34
2023-05-19T02:48:24.254Z,8.42
2023-05-19T02:49:24.232Z,8.45
2023-05-19T02:50:24.227Z,8.58
2023-05-19T02:51:24.207Z,8.46
2023-05-19T02:52:24.204Z,8.46
2023-05-19T02:53:24.198Z,8.42
2023-05-19T02:54:24.191Z,8.37
2023-05-19T02:55:24.171Z,8.34
2023-05-19T02:56:24.158Z,8.45
2023-05-19T02:57:24.187Z,8.36
2023-05-19T02:58:24.154Z,8.37
2023-05-19T02:59:25.597Z,8.32
2023-05-19T03:00:24.125Z,8.42
2023-05-19T03:01:24.163Z,8.36
2023-05-19T03:02:24.116Z,8.31
2023-05-19T03:03:24.262Z,8.28
2023-05-19T03:04:24.087Z,8.34
2023-05-19T03:05:24.071Z,8.34
2023-05-19T03:06:24.057Z,8.25
2023-05-19T03:07:24.062Z,8.22
2023-05-19T03:08:24.044Z,8.20
2023-05-19T03:09:24.033Z,8.24
2023-05-19T03:10:24.023Z,8.24
2023-05-19T03:11:24.026Z,8.24
2023-05-19T03:12:24.018Z,8.12
2023-05-19T03:13:23.992Z,8.18
2023-05-19T03:14:24.257Z,8.21
2023-05-19T03:15:23.970Z,8.25
2023-05-19T03:16:24.017Z,8.18
2023-05-19T03:17:23.980Z,8.14
2023-05-19T03:18:23.989Z,8.17
2023-05-19T03:19:23.988Z,8.18
2023-05-19T03:20:23.934Z,8.25
2023-05-19T03:21:23.926Z,8.28
2023-05-19T03:22:23.912Z,8.24
2023-05-19T03:23:23.904Z,8.21
2023-05-19T03:24:23.898Z,8.22
2023-05-19T03:25:23.903Z,8.27
2023-05-19T03:26:23.893Z,8.27
2023-05-19T03:27:23.877Z,8.17
2023-05-19T03:28:23.858Z,8.27
2023-05-19T03:29:23.834Z,8.40
2023-05-19T03:30:24.846Z,8.46
2023-05-19T03:31:23.836Z,8.40
2023-05-19T03:32:23.925Z,8.39
2023-05-19T03:33:23.941Z,8.45
2023-05-19T03:34:23.795Z,8.36
2023-05-19T03:35:23.801Z,8.42
2023-05-19T03:36:23.776Z,8.24
2023-05-19T03:37:23.772Z,8.28
2023-05-19T03:38:23.758Z,8.22
2023-05-19T03:39:23.767Z,8.29
2023-05-19T03:40:23.756Z,8.28
2023-05-19T03:41:23.731Z,8.21
2023-05-19T03:42:23.727Z,8.21
2023-05-19T03:43:23.702Z,8.25
2023-05-19T03:44:23.712Z,8.34
2023-05-19T03:45:23.729Z,8.43
2023-05-19T03:46:23.764Z,8.39
2023-05-19T03:47:23.724Z,8.39
2023-05-19T03:48:23.662Z,8.45
2023-05-19T03:49:23.796Z,8.34
2023-05-19T03:50:23.642Z,8.29
2023-05-19T03:51:23.634Z,8.39
2023-05-19T03:52:23.624Z,8.37
2023-05-19T03:53:23.626Z,8.36
2023-05-19T03:54:23.719Z,8.31
2023-05-19T03:55:23.595Z,8.34
2023-05-19T03:56:23.588Z,8.36
2023-05-19T03:57:23.573Z,8.34
2023-05-19T03:58:23.584Z,8.42
2023-05-19T03:59:23.556Z,8.29
2023-05-19T04:00:23.543Z,8.29
2023-05-19T04:01:23.539Z,8.34
2023-05-19T04:02:23.648Z,8.28
2023-05-19T04:03:23.668Z,8.31
2023-05-19T04:04:23.525Z,8.34
2023-05-19T04:05:23.496Z,8.34
2023-05-19T04:06:23.546Z,8.28
2023-05-19T04:07:24.497Z,8.31
2023-05-19T04:08:23.482Z,8.42
2023-05-19T04:09:23.458Z,8.39
2023-05-19T04:10:23.455Z,8.49
2023-05-19T04:11:23.441Z,8.54
2023-05-19T04:12:23.444Z,8.40
2023-05-19T04:13:23.428Z,8.52
2023-05-19T04:14:23.416Z,8.49
2023-05-19T04:15:23.398Z,8.45
2023-05-19T04:16:23.584Z,8.49
2023-05-19T04:17:23.432Z,8.52
2023-05-19T04:18:23.380Z,8.54
2023-05-19T04:19:23.439Z,8.47
2023-05-19T04:20:23.359Z,8.47
2023-05-19T04:21:23.365Z,8.37
2023-05-19T04:22:23.350Z,8.39
2023-05-19T04:23:23.341Z,8.40
2023-05-19T04:24:23.359Z,8.36
2023-05-19T04:25:23.314Z,8.42
2023-05-19T04:26:23.310Z,8.43
2023-05-19T04:27:23.296Z,8.40
2023-05-19T04:28:23.280Z,8.43
2023-05-19T04:29:23.270Z,8.43
2023-05-19T04:30:23.258Z,8.42
2023-05-19T04:31:23.311Z,8.40
2023-05-19T04:32:23.353Z,8.54
2023-05-19T04:33:23.236Z,8.58
2023-05-19T04:34:23.226Z,8.71
2023-05-19T04:35:23.226Z,8.64
2023-05-19T04:36:23.214Z,8.67
2023-05-19T04:37:23.198Z,8.80
2023-05-19T04:38:23.190Z,8.82
2023-05-19T04:39:23.178Z,8.73
2023-05-19T04:40:23.182Z,8.89
2023-05-19T04:41:23.168Z,8.79
2023-05-19T04:42:23.148Z,8.80
2023-05-19T04:43:23.137Z,8.70
2023-05-19T04:44:23.130Z,8.86
2023-05-19T04:45:24.124Z,8.83
2023-05-19T04:46:24.165Z,8.96
2023-05-19T04:47:23.119Z,9.15
2023-05-19T04:48:23.108Z,9.10
2023-05-19T04:49:23.093Z,9.24
2023-05-19T04:50:23.080Z,9.24
2023-05-19T04:51:23.076Z,9.26
2023-05-19T04:52:23.055Z,9.22
2023-05-19T04:53:23.043Z,9.22
2023-05-19T04:54:23.045Z,9.27
2023-05-19T04:55:23.024Z,9.26
2023-05-19T04:56:23.010Z,9.31
2023-05-19T04:57:23.005Z,9.30
2023-05-19T04:58:22.999Z,9.30
2023-05-19T04:59:22.995Z,9.20
2023-05-19T05:00:22.999Z,9.26
2023-05-19T05:01:23.009Z,9.26
2023-05-19T05:02:23.015Z,9.31
2023-05-19T05:03:23.078Z,9.24
2023-05-19T05:04:22.978Z,9.35
2023-05-19T05:05:22.942Z,9.38
2023-05-19T05:06:22.925Z,9.42
2023-05-19T05:07:22.921Z,9.48
2023-05-19T05:08:22.922Z,9.49
2023-05-19T05:09:22.888Z,9.42
2023-05-19T05:10:22.894Z,9.49
2023-05-19T05:11:22.880Z,9.49
2023-05-19T05:12:22.863Z,9.50
2023-05-19T05:13:22.870Z,9.52
2023-05-19T05:14:22.853Z,9.56
2023-05-19T05:15:22.837Z,9.65
2023-05-19T05:16:22.865Z,9.67
2023-05-19T05:17:22.859Z,9.70
2023-05-19T05:18:22.810Z,9.95
2023-05-19T05:19:22.843Z,9.83
2023-05-19T05:20:22.786Z,9.80
2023-05-19T05:21:22.766Z,9.78
2023-05-19T05:22:23.770Z,9.85
2023-05-19T05:23:22.762Z,9.83
2023-05-19T05:24:22.759Z,9.99
2023-05-19T05:25:22.738Z,9.89
2023-05-19T05:26:22.722Z,9.88
2023-05-19T05:27:22.751Z,9.78
2023-05-19T05:28:22.705Z,9.83
2023-05-19T05:29:22.687Z,9.78
2023-05-19T05:30:22.690Z,9.75
2023-05-19T05:31:22.677Z,9.70
2023-05-19T05:32:22.714Z,9.80
2023-05-19T05:33:22.771Z,9.78
2023-05-19T05:34:22.637Z,9.85
2023-05-19T05:35:22.636Z,9.86
2023-05-19T05:36:22.663Z,9.89
2023-05-19T05:37:22.620Z,9.89
2023-05-19T05:38:22.615Z,9.96
2023-05-19T05:39:22.602Z,9.96
2023-05-19T05:40:22.614Z,9.98
2023-05-19T05:41:22.594Z,9.83
2023-05-19T05:42:22.569Z,9.80
2023-05-19T05:43:22.558Z,9.86
2023-05-19T05:44:22.586Z,9.85
2023-05-19T05:45:22.558Z,9.75
2023-05-19T05:46:22.564Z,9.78
2023-05-19T05:47:22.520Z,9.74
2023-05-19T05:48:22.512Z,9.91
2023-05-19T05:49:22.499Z,9.86
2023-05-19T05:50:22.501Z,10.04
2023-05-19T05:51:22.498Z,10.11
2023-05-19T05:52:22.485Z,10.43
2023-05-19T05:53:23.469Z,10.65
2023-05-19T05:54:22.479Z,11.24
2023-05-19T05:55:22.462Z,11.51
2023-05-19T05:56:22.437Z,11.66
2023-05-19T05:57:22.428Z,11.81
2023-05-19T05:58:22.408Z,11.70
2023-05-19T05:59:22.417Z,11.44
2023-05-19T06:00:22.426Z,11.28
2023-05-19T06:01:22.420Z,10.95
2023-05-19T06:02:22.426Z,10.95
2023-05-19T06:03:22.551Z,10.88
2023-05-19T06:04:22.374Z,10.87
2023-05-19T06:05:22.446Z,10.99
2023-05-19T06:06:22.376Z,10.99
2023-05-19T06:07:22.331Z,10.90
2023-05-19T06:08:22.334Z,11.05
2023-05-19T06:09:22.320Z,11.20
2023-05-19T06:10:22.322Z,11.49
2023-05-19T06:11:22.296Z,12.00
2023-05-19T06:12:22.297Z,12.56
2023-05-19T06:13:22.316Z,12.84
2023-05-19T06:14:22.273Z,12.84
2023-05-19T06:15:22.266Z,13.09
2023-05-19T06:16:22.272Z,13.36
2023-05-19T06:17:22.234Z,13.61
2023-05-19T06:18:22.250Z,13.73
2023-05-19T06:19:22.311Z,13.71
2023-05-19T06:20:22.195Z,12.63
2023-05-19T06:21:22.194Z,12.08
2023-05-19T06:22:22.217Z,12.19
2023-05-19T06:23:22.208Z,12.73
2023-05-19T06:24:22.181Z,12.95
2023-05-19T06:25:22.205Z,13.10
2023-05-19T06:26:22.146Z,13.53
2023-05-19T06:27:22.144Z,14.06
2023-05-19T06:28:22.126Z,14.42
2023-05-19T06:29:22.103Z,14.49
2023-05-19T06:30:22.091Z,14.66
2023-05-19T06:31:22.095Z,14.34
2023-05-19T06:32:22.109Z,14.02
2023-05-19T06:33:22.059Z,13.94
2023-05-19T06:34:22.060Z,14.17
2023-05-19T06:35:22.037Z,13.99
2023-05-19T06:36:22.029Z,14.13
2023-05-19T06:37:22.023Z,14.44
2023-05-19T06:38:22.004Z,14.72
2023-05-19T06:39:21.995Z,14.48
2023-05-19T06:40:21.983Z,14.48
2023-05-19T06:41:21.982Z,14.86
2023-05-19T06:42:22.012Z,14.80
2023-05-19T06:43:21.952Z,14.49
2023-05-19T06:44:21.949Z,14.59
2023-05-19T06:45:21.998Z,14.61
2023-05-19T06:46:21.966Z,14.38
2023-05-19T06:47:21.908Z,14.36
2023-05-19T06:48:21.891Z,14.16
2023-05-19T06:49:21.887Z,13.76
2023-05-19T06:50:21.882Z,13.61
2023-05-19T06:51:21.927Z,13.09
2023-05-19T06:52:21.860Z,12.69
2023-05-19T06:53:21.840Z,12.80
2023-05-19T06:54:21.834Z,12.80
2023-05-19T06:55:21.854Z,12.92
2023-05-19T06:56:21.829Z,13.09
2023-05-19T06:57:21.807Z,13.44
2023-05-19T06:58:21.789Z,13.88
2023-05-19T06:59:21.784Z,14.06
2023-05-19T07:00:23.809Z,14.08
2023-05-19T07:01:22.806Z,13.93
2023-05-19T07:02:21.747Z,14.26
2023-05-19T07:03:21.843Z,14.67
2023-05-19T07:04:21.736Z,14.86
2023-05-19T07:05:21.730Z,14.90
2023-05-19T07:06:21.723Z,15.00
2023-05-19T07:07:21.698Z,14.94
2023-05-19T07:08:21.689Z,14.74
2023-05-19T07:09:21.683Z,14.41
2023-05-19T07:10:21.677Z,13.96
2023-05-19T07:11:21.661Z,14.08
2023-05-19T07:12:21.649Z,13.98
2023-05-19T07:13:21.638Z,14.08
2023-05-19T07:14:21.639Z,14.21
2023-05-19T07:15:21.612Z,14.20
2023-05-19T07:16:21.616Z,14.31
2023-05-19T07:17:21.715Z,14.60
2023-05-19T07:18:21.598Z,14.49
2023-05-19T07:19:21.647Z,14.49
2023-05-19T07:20:21.553Z,14.60
2023-05-19T07:21:21.553Z,14.29
2023-05-19T07:22:21.534Z,14.20
2023-05-19T07:23:21.531Z,14.20
2023-05-19T07:24:21.528Z,14.30
2023-05-19T07:25:21.497Z,13.79
2023-05-19T07:26:21.496Z,13.93
2023-05-19T07:27:21.489Z,14.26
2023-05-19T07:28:21.487Z,14.30
2023-05-19T07:29:21.468Z,14.09
2023-05-19T07:30:21.441Z,14.34
2023-05-19T07:31:21.513Z,14.05
2023-05-19T07:32:21.523Z,13.90
2023-05-19T07:33:21.425Z,13.83
2023-05-19T07:34:21.405Z,14.08
2023-05-19T07:35:21.396Z,13.98
2023-05-19T07:36:21.383Z,13.79
2023-05-19T07:37:21.386Z,14.01
2023-05-19T07:38:21.379Z,14.11
2023-05-19T07:39:22.389Z,14.19
2023-05-19T07:40:21.346Z,14.44
2023-05-19T07:41:21.368Z,14.12
2023-05-19T07:42:21.338Z,13.90
2023-05-19T07:43:21.311Z,13.87
2023-05-19T07:44:21.300Z,13.93
2023-05-19T07:45:21.288Z,14.01
2023-05-19T07:46:21.350Z,14.12
2023-05-19T07:47:21.272Z,14.19
2023-05-19T07:48:21.261Z,14.11
2023-05-19T07:49:21.250Z,14.13
2023-05-19T07:50:21.241Z,14.05
2023-05-19T07:51:21.226Z,14.08
2023-05-19T07:52:21.225Z,14.05
2023-05-19T07:53:21.200Z,14.20
2023-05-19T07:54:21.197Z,14.20
2023-05-19T07:55:21.179Z,14.36
2023-05-19T07:56:21.190Z,14.39
2023-05-19T07:57:22.237Z,14.45
2023-05-19T07:58:21.149Z,14.59
2023-05-19T07:59:21.146Z,14.49
2023-05-19T08:00:21.127Z,14.61
2023-05-19T08:01:21.139Z,14.49
2023-05-19T08:02:21.144Z,14.71
2023-05-19T08:03:21.362Z,14.86
2023-05-19T08:04:21.101Z,14.78
2023-05-19T08:05:21.096Z,14.85
2023-05-19T08:06:21.088Z,14.64
2023-05-19T08:07:21.062Z,14.66
2023-05-19T08:08:21.045Z,14.57
2023-05-19T08:09:21.038Z,14.66
2023-05-19T08:10:21.129Z,14.85
2023-05-19T08:11:21.028Z,14.75
2023-05-19T08:12:21.003Z,14.93
2023-05-19T08:13:20.997Z,15.16
2023-05-19T08:14:20.988Z,15.04
2023-05-19T08:15:21.001Z,15.09
2023-05-19T08:16:21.037Z,14.87
2023-05-19T08:17:20.957Z,14.63
2023-05-19T08:18:20.941Z,14.66
2023-05-19T08:19:21.133Z,14.78
2023-05-19T08:20:20.940Z,14.86
2023-05-19T08:21:20.913Z,14.98
2023-05-19T08:22:20.905Z,15.16
2023-05-19T08:23:20.891Z,14.82
2023-05-19T08:24:20.911Z,14.80
2023-05-19T08:25:20.882Z,14.85
2023-05-19T08:26:20.861Z,14.90
2023-05-19T08:27:20.854Z,15.15
2023-05-19T08:28:20.846Z,15.07
2023-05-19T08:29:20.849Z,15.13
2023-05-19T08:30:20.826Z,15.33
2023-05-19T08:31:20.832Z,14.85
2023-05-19T08:32:20.798Z,14.86
2023-05-19T08:33:20.797Z,14.90
2023-05-19T08:34:20.852Z,15.11
2023-05-19T08:35:20.773Z,15.37
2023-05-19T08:36:20.772Z,15.22
2023-05-19T08:37:20.740Z,15.15
2023-05-19T08:38:20.780Z,15.28
2023-05-19T08:39:20.741Z,15.49
2023-05-19T08:40:20.720Z,15.53
2023-05-19T08:41:20.702Z,15.64
2023-05-19T08:42:20.786Z,15.46
2023-05-19T08:43:20.722Z,15.35
2023-05-19T08:44:20.681Z,15.04
2023-05-19T08:45:20.669Z,15.04
2023-05-19T08:46:20.727Z,15.16
2023-05-19T08:47:20.645Z,15.19
2023-05-19T08:48:20.651Z,15.30
2023-05-19T08:49:20.621Z,15.18
2023-05-19T08:50:20.611Z,15.19
2023-05-19T08:51:20.605Z,15.07
2023-05-19T08:52:20.627Z,15.12
2023-05-19T08:53:32.447Z,15.16
2023-05-19T08:54:22.585Z,15.20
2023-05-19T08:55:20.553Z,15.40
2023-05-19T08:56:20.552Z,15.40
2023-05-19T08:57:20.549Z,15.41
2023-05-19T08:58:20.554Z,15.40
2023-05-19T08:59:20.516Z,15.58
2023-05-19T09:00:20.505Z,15.67
2023-05-19T09:01:20.577Z,15.55
2023-05-19T09:02:20.500Z,15.46
2023-05-19T09:03:23.894Z,15.38
2023-05-19T09:04:21.543Z,15.37
2023-05-19T09:05:20.503Z,15.46
2023-05-19T09:06:20.479Z,15.64
2023-05-19T09:07:20.451Z,15.60
2023-05-19T09:08:20.439Z,15.55
2023-05-19T09:09:20.416Z,15.34
2023-05-19T09:10:20.483Z,15.19
2023-05-19T09:11:20.409Z,15.13
2023-05-19T09:12:20.389Z,15.00
2023-05-19T09:13:20.383Z,14.98
2023-05-19T09:14:20.439Z,15.15
2023-05-19T09:15:20.355Z,15.41
2023-05-19T09:16:20.362Z,15.44
2023-05-19T09:17:20.376Z,15.56
2023-05-19T09:18:20.353Z,15.68
2023-05-19T09:19:20.325Z,15.70
2023-05-19T09:20:20.363Z,15.46
2023-05-19T09:21:20.308Z,15.49
2023-05-19T09:22:20.280Z,15.43
2023-05-19T09:23:20.278Z,15.44
2023-05-19T09:24:20.259Z,15.43
2023-05-19T09:25:20.258Z,15.44
2023-05-19T09:26:20.239Z,15.62
2023-05-19T09:27:20.229Z,15.70
2023-05-19T09:28:20.274Z,15.64
2023-05-19T09:29:20.216Z,15.64
2023-05-19T09:30:20.265Z,15.64
2023-05-19T09:31:20.216Z,15.68
2023-05-19T09:32:20.217Z,15.68
2023-05-19T09:33:20.269Z,15.74
2023-05-19T09:34:20.152Z,15.89
2023-05-19T09:35:20.159Z,15.73
2023-05-19T09:36:20.133Z,15.73
2023-05-19T09:37:20.124Z,15.64
2023-05-19T09:38:20.115Z,15.25
2023-05-19T09:39:20.136Z,15.25
2023-05-19T09:40:20.105Z,15.41
2023-05-19T09:41:20.084Z,15.43
2023-05-19T09:42:20.076Z,15.48
2023-05-19T09:43:20.063Z,15.64
2023-05-19T09:44:20.064Z,15.58
2023-05-19T09:45:20.041Z,15.73
2023-05-19T09:46:20.176Z,15.71
2023-05-19T09:47:20.042Z,15.86
2023-05-19T09:48:20.012Z,15.98
2023-05-19T09:49:20.005Z,16.04
2023-05-19T09:50:19.987Z,16.07
2023-05-19T09:51:19.977Z,16.29
2023-05-19T09:52:19.963Z,16.11
2023-05-19T09:53:19.966Z,15.84
2023-05-19T09:54:19.952Z,15.73
2023-05-19T09:55:19.935Z,15.96
2023-05-19T09:56:19.933Z,16.27
2023-05-19T09:57:19.913Z,16.45
2023-05-19T09:58:19.917Z,16.23
2023-05-19T09:59:19.903Z,16.23
2023-05-19T10:00:19.881Z,16.30
2023-05-19T10:01:19.949Z,16.26
2023-05-19T10:02:19.859Z,16.50
2023-05-19T10:03:19.867Z,16.85
2023-05-19T10:04:19.849Z,16.87
2023-05-19T10:05:20.090Z,16.70
2023-05-19T10:06:19.824Z,16.60
2023-05-19T10:07:19.827Z,16.50
2023-05-19T10:08:19.815Z,16.54
2023-05-19T10:09:19.801Z,16.42
2023-05-19T10:10:19.797Z,16.44
2023-05-19T10:11:19.776Z,16.29
2023-05-19T10:12:19.778Z,16.06
2023-05-19T10:13:19.753Z,15.78
2023-05-19T10:14:19.747Z,15.78
2023-05-19T10:15:22.798Z,15.85
2023-05-19T10:16:19.763Z,16.06
2023-05-19T10:17:19.733Z,16.16
2023-05-19T10:18:19.703Z,16.03
2023-05-19T10:19:19.739Z,15.88
2023-05-19T10:20:19.703Z,16.18
2023-05-19T10:21:19.688Z,16.30
2023-05-19T10:22:19.676Z,16.62
2023-05-19T10:23:19.655Z,16.98
2023-05-19T10:24:19.643Z,17.33
2023-05-19T10:25:19.640Z,17.55
2023-05-19T10:26:19.646Z,17.71
2023-05-19T10:27:19.660Z,17.76
2023-05-19T10:28:19.614Z,17.70
2023-05-19T10:29:19.600Z,17.63
2023-05-19T10:30:19.603Z,17.81
2023-05-19T10:31:19.596Z,17.81
2023-05-19T10:32:19.664Z,17.65
2023-05-19T10:33:19.640Z,17.81
2023-05-19T10:34:19.580Z,17.54
2023-05-19T10:35:19.562Z,17.38
2023-05-19T10:36:19.551Z,17.54
2023-05-19T10:37:19.521Z,17.81
2023-05-19T10:38:19.515Z,17.95
2023-05-19T10:39:19.512Z,17.81
2023-05-19T10:40:19.510Z,17.83
2023-05-19T10:41:19.484Z,17.98
2023-05-19T10:42:19.490Z,17.99
2023-05-19T10:43:19.466Z,17.84
2023-05-19T10:44:19.457Z,17.46
2023-05-19T10:45:19.459Z,17.33
2023-05-19T10:46:19.465Z,17.09
2023-05-19T10:47:19.470Z,17.20
2023-05-19T10:48:19.423Z,17.49
2023-05-19T10:49:19.430Z,17.55
2023-05-19T10:50:19.432Z,17.36
2023-05-19T10:51:19.391Z,17.24
2023-05-19T10:52:19.382Z,17.00
2023-05-19T10:53:19.376Z,16.98
2023-05-19T10:54:19.377Z,17.02
2023-05-19T10:55:19.358Z,17.22
2023-05-19T10:56:19.349Z,17.39
2023-05-19T10:57:19.336Z,17.60
2023-05-19T10:58:19.362Z,17.63
2023-05-19T10:59:19.326Z,18.04
2023-05-19T11:00:19.307Z,18.38
2023-05-19T11:01:19.422Z,18.29
2023-05-19T11:02:20.392Z,17.87
2023-05-19T11:03:19.296Z,17.46
2023-05-19T11:04:19.320Z,17.70
2023-05-19T11:05:19.256Z,17.92
2023-05-19T11:06:19.251Z,17.79
2023-05-19T11:07:19.237Z,17.83
2023-05-19T11:08:19.231Z,17.45
2023-05-19T11:09:22.525Z,17.53
2023-05-19T11:10:21.593Z,17.81
2023-05-19T11:11:19.197Z,17.84
2023-05-19T11:12:19.195Z,18.29
2023-05-19T11:13:19.192Z,18.36
2023-05-19T11:14:19.196Z,18.53
2023-05-19T11:15:19.173Z,18.78
2023-05-19T11:16:19.199Z,18.60
2023-05-19T11:17:19.165Z,18.38
2023-05-19T11:18:19.141Z,18.44
2023-05-19T11:19:19.136Z,17.83
2023-05-19T11:20:19.111Z,17.45
2023-05-19T11:21:19.172Z,17.30
2023-05-19T11:22:19.105Z,17.10
2023-05-19T11:23:19.101Z,17.06
2023-05-19T11:24:19.090Z,16.98
2023-05-19T11:25:19.065Z,16.57
2023-05-19T11:26:19.053Z,16.29
2023-05-19T11:27:19.064Z,16.69
2023-05-19T11:28:19.079Z,17.02
2023-05-19T11:29:19.026Z,16.72
2023-05-19T11:30:19.016Z,16.57
2023-05-19T11:31:19.007Z,16.82
2023-05-19T11:32:19.038Z,17.22
2023-05-19T11:33:20.059Z,17.71
2023-05-19T11:34:18.980Z,18.05
2023-05-19T11:35:18.979Z,17.80
2023-05-19T11:36:18.960Z,17.76
2023-05-19T11:37:18.946Z,17.45
2023-05-19T11:38:18.933Z,17.30
2023-05-19T11:39:18.924Z,17.25
2023-05-19T11:40:18.921Z,17.58
2023-05-19T11:41:20.679Z,17.91
2023-05-19T11:42:19.900Z,18.09
2023-05-19T11:43:18.889Z,18.20
2023-05-19T11:44:18.875Z,18.38
2023-05-19T11:45:18.884Z,18.14
2023-05-19T11:46:18.891Z,18.21
2023-05-19T11:47:18.838Z,18.11
2023-05-19T11:48:18.869Z,18.05
2023-05-19T11:49:18.841Z,18.07
2023-05-19T11:50:18.836Z,17.74
2023-05-19T11:51:18.805Z,17.60
2023-05-19T11:52:18.793Z,17.89
2023-05-19T11:53:18.787Z,18.50
2023-05-19T11:54:18.773Z,18.94
2023-05-19T11:55:18.773Z,19.21
2023-05-19T11:56:18.758Z,18.83
2023-05-19T11:57:18.756Z,18.97
2023-05-19T11:58:18.747Z,18.72
2023-05-19T11:59:18.729Z,18.26
2023-05-19T12:00:18.717Z,18.26
2023-05-19T12:01:18.699Z,18.66
2023-05-19T12:02:18.721Z,18.13
2023-05-19T12:03:18.713Z,18.26
2023-05-19T12:04:18.679Z,17.96
2023-05-19T12:05:18.803Z,17.99
2023-05-19T12:06:18.680Z,17.89
2023-05-19T12:07:18.690Z,17.91
2023-05-19T12:08:18.656Z,18.09
2023-05-19T12:09:18.630Z,18.28
2023-05-19T12:10:18.609Z,18.75
2023-05-19T12:11:19.972Z,19.05
2023-05-19T12:12:18.597Z,18.59
2023-05-19T12:13:18.579Z,18.99
2023-05-19T12:14:18.586Z,18.69
2023-05-19T12:15:18.571Z,18.50
2023-05-19T12:16:18.618Z,18.44
2023-05-19T12:17:18.538Z,18.21
2023-05-19T12:18:18.544Z,17.99
2023-05-19T12:19:18.549Z,18.20
2023-05-19T12:20:18.512Z,18.09
2023-05-19T12:21:18.550Z,17.94
2023-05-19T12:22:18.491Z,17.74
2023-05-19T12:23:18.513Z,17.62
2023-05-19T12:24:18.478Z,17.51
2023-05-19T12:25:18.458Z,17.60
2023-05-19T12:26:18.452Z,17.73
2023-05-19T12:27:18.455Z,17.81
2023-05-19T12:28:18.448Z,18.07
2023-05-19T12:29:18.428Z,17.89
2023-05-19T12:30:18.427Z,17.55
2023-05-19T12:31:18.422Z,17.24
2023-05-19T12:32:18.418Z,16.98
2023-05-19T12:33:18.394Z,16.91
2023-05-19T12:34:19.378Z,17.18
2023-05-19T12:35:18.362Z,17.57
2023-05-19T12:36:18.359Z,17.76
2023-05-19T12:37:18.360Z,17.84
2023-05-19T12:38:18.337Z,18.13
2023-05-19T12:39:19.504Z,18.02
2023-05-19T12:40:18.332Z,18.28
2023-05-19T12:41:18.319Z,18.28
2023-05-19T12:42:18.347Z,18.69
2023-05-19T12:43:18.283Z,18.44
2023-05-19T12:44:18.273Z,18.28
2023-05-19T12:45:18.267Z,17.91
2023-05-19T12:46:18.343Z,17.63
2023-05-19T12:47:18.242Z,17.36
2023-05-19T12:48:18.281Z,16.99
2023-05-19T12:49:18.225Z,16.98
2023-05-19T12:50:18.229Z,17.28
2023-05-19T12:51:18.214Z,17.51
2023-05-19T12:52:19.205Z,17.49
2023-05-19T12:53:18.185Z,17.46
2023-05-19T12:54:18.234Z,17.27
2023-05-19T12:55:18.175Z,17.53
2023-05-19T12:56:18.162Z,17.91
2023-05-19T12:57:18.149Z,17.83
2023-05-19T12:58:18.141Z,17.76
2023-05-19T12:59:26.957Z,17.49
2023-05-19T13:00:20.147Z,17.80
2023-05-19T13:01:18.162Z,18.17
2023-05-19T13:02:18.162Z,18.31
2023-05-19T13:03:18.234Z,18.32